Time;durP1;ratioP1;P1;durP2;ratioP2;P2;SDS_P1;SDS_P2;PMS_P1;PMS_P2;Temp;Humidity;BMP_temperature;BMP_pressure;BME280_temperature;BME280_humidity;BME280_pressure;Samples;Min_cycle;Max_cycle;Signal;HPM_P1;HPM_P2
2021/12/08 00:00:04;;;;;;;45.70;25.83;;;3.20;1.00;;;;;;5052377;28;20904;-57
2021/12/08 00:02:30;;;;;;;51.07;28.10;;;3.20;1.00;;;;;;5045076;28;20536;-56
2021/12/08 00:04:55;;;;;;;54.23;28.07;;;3.20;1.00;;;;;;5052077;28;20584;-58
2021/12/08 00:07:21;;;;;;;45.50;25.70;;;3.20;1.00;;;;;;5050730;28;20611;-57
2021/12/08 00:10:00;;;;;;;47.43;26.47;;;3.20;1.00;;;;;;5052540;28;20650;-57
2021/12/08 00:15:10;;;;;;;57.70;27.43;;;3.10;1.00;;;;;;5054549;28;20953;-55
2021/12/08 00:17:35;;;;;;;48.07;25.63;;;3.10;1.00;;;;;;5053754;28;20447;-57
2021/12/08 00:20:04;;;;;;;53.97;28.80;;;3.20;1.00;;;;;;5053051;28;20181;-58
2021/12/08 00:22:30;;;;;;;52.27;28.97;;;;;;;;;;5051716;28;20200;-57
2021/12/08 00:24:55;;;;;;;49.03;27.27;;;3.20;1.00;;;;;;5053236;28;20453;-56
2021/12/08 00:27:21;;;;;;;53.03;27.63;;;3.20;1.00;;;;;;5049937;28;20464;-57
2021/12/08 00:29:47;;;;;;;51.00;28.20;;;3.10;1.00;;;;;;5051660;28;20530;-56
2021/12/08 00:32:12;;;;;;;50.70;27.20;;;3.10;1.00;;;;;;5050139;28;20455;-59
2021/12/08 00:34:38;;;;;;;51.07;27.27;;;3.20;1.00;;;;;;5045811;28;20200;-57
2021/12/08 00:37:04;;;;;;;54.67;29.30;;;3.10;1.00;;;;;;5050240;28;20192;-56
2021/12/08 00:39:30;;;;;;;63.20;30.03;;;3.10;1.00;;;;;;5051182;28;20200;-56
2021/12/08 00:41:56;;;;;;;52.03;28.30;;;3.10;1.00;;;;;;5053008;28;20895;-57
2021/12/08 00:44:22;;;;;;;58.60;27.80;;;3.00;1.00;;;;;;5050444;28;20212;-57
2021/12/08 00:46:47;;;;;;;47.57;26.60;;;3.00;1.00;;;;;;5051541;28;20196;-54
2021/12/08 00:49:15;;;;;;;51.93;27.13;;;3.00;1.00;;;;;;5051100;28;20477;-56
2021/12/08 00:51:41;;;;;;;53.80;27.50;;;3.00;1.00;;;;;;5044254;28;20263;-58
2021/12/08 00:54:07;;;;;;;54.07;28.20;;;3.10;1.00;;;;;;5050425;28;20477;-57
2021/12/08 00:56:33;;;;;;;50.73;27.70;;;;;;;;;;5052875;28;20194;-55
2021/12/08 00:58:59;;;;;;;52.37;26.50;;;3.20;1.00;;;;;;5052764;28;21067;-55
2021/12/08 01:01:25;;;;;;;52.10;27.50;;;3.30;1.00;;;;;;5049121;28;20522;-56
2021/12/08 01:03:51;;;;;;;54.50;28.47;;;3.40;1.00;;;;;;5047994;28;20457;-57
2021/12/08 01:06:17;;;;;;;44.77;27.13;;;3.50;1.00;;;;;;5048686;28;20199;-55
2021/12/08 01:08:44;;;;;;;49.87;26.63;;;3.60;1.00;;;;;;5046214;28;20462;-56
2021/12/08 01:11:18;;;;;;;51.00;26.83;;;3.60;1.00;;;;;;5049026;28;20852;-56
2021/12/08 01:13:44;;;;;;;47.37;24.23;;;3.60;1.00;;;;;;5050830;28;20454;-54
2021/12/08 01:16:10;;;;;;;52.57;29.50;;;3.60;1.00;;;;;;5046804;28;20786;-56
2021/12/08 01:18:35;;;;;;;43.03;25.20;;;3.70;1.00;;;;;;5052465;28;20442;-56
2021/12/08 01:21:05;;;;;;;39.33;25.80;;;3.50;1.00;;;;;;5050324;28;20192;-56
2021/12/08 01:23:32;;;;;;;46.00;26.90;;;3.50;1.00;;;;;;5049225;28;20192;-57
2021/12/08 01:25:57;;;;;;;39.27;25.13;;;3.50;1.00;;;;;;5048965;28;20479;-56
2021/12/08 01:28:24;;;;;;;46.97;26.57;;;3.60;1.00;;;;;;5015741;28;1044069;-56
2021/12/08 01:30:54;;;;;;;40.60;22.97;;;3.60;1.00;;;;;;5051263;28;20653;-55
2021/12/08 01:33:20;;;;;;;44.30;26.63;;;3.50;1.00;;;;;;5051785;28;20456;-56
2021/12/08 01:35:46;;;;;;;43.40;25.20;;;3.50;1.00;;;;;;5051065;28;20456;-56
2021/12/08 01:38:12;;;;;;;46.03;25.83;;;3.50;1.00;;;;;;5047543;28;20460;-57
2021/12/08 01:40:38;;;;;;;46.83;27.50;;;3.50;1.00;;;;;;5049243;28;20249;-56
2021/12/08 01:43:04;;;;;;;43.37;24.10;;;3.40;1.00;;;;;;5047643;28;20450;-59
2021/12/08 01:48:19;;;;;;;45.80;26.60;;;3.40;1.00;;;;;;5049522;28;20423;-55
2021/12/08 01:51:04;;;;;;;41.17;23.73;;;3.40;1.00;;;;;;5050390;28;20466;-58
2021/12/08 01:53:30;;;;;;;41.43;26.30;;;3.50;1.00;;;;;;5051105;28;20444;-56
2021/12/08 01:55:57;;;;;;;38.60;24.13;;;3.60;1.00;;;;;;5049938;28;20441;-57
2021/12/08 01:58:25;;;;;;;39.30;25.67;;;3.70;1.00;;;;;;5046112;28;20882;-58
2021/12/08 02:01:00;;;;;;;39.23;24.20;;;3.70;1.00;;;;;;5051586;28;20479;-56
2021/12/08 02:03:27;;;;;;;37.90;23.13;;;3.80;1.00;;;;;;5050105;28;20799;-56
2021/12/08 02:05:54;;;;;;;38.20;23.13;;;4.00;1.00;;;;;;5049642;28;20465;-56
2021/12/08 02:08:20;;;;;;;37.10;22.20;;;3.90;1.00;;;;;;5048151;28;20449;-57
2021/12/08 02:10:47;;;;;;;38.07;23.57;;;4.00;1.00;;;;;;5050592;28;20442;-56
2021/12/08 02:13:13;;;;;;;40.97;24.27;;;4.20;1.00;;;;;;5050708;28;20435;-58
2021/12/08 02:15:41;;;;;;;41.80;24.60;;;4.10;1.00;;;;;;5048013;28;20548;-57
2021/12/08 02:18:09;;;;;;;37.97;23.63;;;4.10;1.00;;;;;;5033762;28;20447;-56
2021/12/08 02:20:35;;;;;;;31.40;21.20;;;4.00;1.00;;;;;;5050435;28;20442;-57
2021/12/08 02:23:01;;;;;;;43.47;23.67;;;3.90;1.00;;;;;;5050560;28;20493;-57
2021/12/08 02:25:29;;;;;;;36.30;22.53;;;3.90;1.00;;;;;;5052776;28;20461;-58
2021/12/08 02:27:57;;;;;;;37.63;22.60;;;3.80;1.00;;;;;;5050019;28;20552;-57
2021/12/08 02:30:46;;;;;;;31.67;21.07;;;3.80;1.00;;;;;;5050571;28;20437;-56
2021/12/08 02:49:35;;;;;;;33.43;21.63;;;3.50;1.00;;;;;;5050509;28;20487;-56
2021/12/08 02:52:02;;;;;;;37.47;24.80;;;3.50;1.00;;;;;;5048678;28;20514;-55
2021/12/08 02:54:34;;;;;;;31.27;21.60;;;3.40;1.00;;;;;;5051002;28;20800;-55
2021/12/08 02:57:00;;;;;;;34.60;21.57;;;3.50;1.00;;;;;;5049495;28;20445;-56
2021/12/08 02:59:25;;;;;;;35.30;21.73;;;3.50;1.00;;;;;;5050151;28;20451;-56
2021/12/08 03:01:51;;;;;;;36.40;23.13;;;3.50;1.00;;;;;;5048292;28;20264;-56
2021/12/08 03:04:17;;;;;;;35.97;21.60;;;3.60;1.00;;;;;;5048372;28;20284;-56
2021/12/08 03:06:42;;;;;;;34.43;21.23;;;3.60;1.00;;;;;;5049007;28;20275;-56
2021/12/08 03:09:08;;;;;;;32.77;22.07;;;3.70;1.00;;;;;;5048278;28;20662;-56
2021/12/08 03:11:34;;;;;;;34.10;21.60;;;3.80;1.00;;;;;;5049550;28;20246;-57
2021/12/08 03:14:10;;;;;;;33.90;22.13;;;3.70;1.00;;;;;;5050206;28;20201;-55
2021/12/08 03:16:39;;;;;;;36.60;22.20;;;3.70;1.00;;;;;;5049945;28;21019;-57
2021/12/08 03:19:04;;;;;;;33.03;20.60;;;3.70;1.00;;;;;;5049487;28;20547;-57
2021/12/08 03:21:32;;;;;;;29.20;20.70;;;3.70;1.00;;;;;;5049798;28;20423;-56
2021/12/08 03:26:34;;;;;;;31.63;20.77;;;3.60;1.00;;;;;;5049630;28;21279;-57
2021/12/08 03:29:06;;;;;;;28.07;19.13;;;3.60;1.00;;;;;;5045696;28;20456;-56
2021/12/08 03:31:39;;;;;;;28.10;19.90;;;3.60;1.00;;;;;;5048788;28;20443;-56
2021/12/08 03:34:04;;;;;;;31.70;20.37;;;3.60;1.00;;;;;;5049321;28;20531;-56
2021/12/08 03:36:30;;;;;;;30.03;19.17;;;3.60;1.00;;;;;;5049410;28;21159;-56
2021/12/08 03:38:55;;;;;;;26.97;19.40;;;3.70;1.00;;;;;;5049621;28;20186;-57
2021/12/08 03:41:21;;;;;;;29.70;19.20;;;;;;;;;;5049393;28;20678;-58
2021/12/08 03:43:47;;;;;;;31.63;20.67;;;3.70;1.00;;;;;;5050015;28;20683;-58
2021/12/08 03:46:16;;;;;;;28.60;19.10;;;3.80;1.00;;;;;;5048934;28;20458;-58
2021/12/08 03:48:48;;;;;;;29.90;19.80;;;3.80;1.00;;;;;;5048414;28;20648;-58
2021/12/08 03:51:16;;;;;;;32.43;19.17;;;3.80;1.00;;;;;;5049471;28;20434;-57
2021/12/08 03:53:42;;;;;;;24.83;15.90;;;;;;;;;;5050149;28;20448;-57
2021/12/08 03:56:08;;;;;;;30.47;20.30;;;3.70;1.00;;;;;;5045834;28;20960;-57
2021/12/08 03:58:34;;;;;;;25.10;16.67;;;3.60;1.00;;;;;;5037439;28;20867;-57
2021/12/08 04:01:00;;;;;;;29.27;20.03;;;3.60;1.00;;;;;;5048319;28;20449;-56
2021/12/08 04:03:29;;;;;;;27.73;17.90;;;3.70;1.00;;;;;;5046472;28;20803;-56
2021/12/08 04:05:58;;;;;;;29.13;18.10;;;3.60;1.00;;;;;;5049240;28;20278;-56
2021/12/08 04:08:34;;;;;;;24.37;17.10;;;3.50;1.00;;;;;;5048725;28;20453;-56
2021/12/08 04:11:04;;;;;;;27.93;17.80;;;3.60;1.00;;;;;;5048401;28;20443;-57
2021/12/08 04:13:52;;;;;;;31.13;20.43;;;3.60;1.00;;;;;;5048346;28;20496;-55
2021/12/08 04:16:22;;;;;;;28.00;17.40;;;3.50;1.00;;;;;;5045795;28;20491;-55
2021/12/08 04:18:48;;;;;;;27.80;19.17;;;3.50;1.00;;;;;;5049875;28;20947;-55
2021/12/08 04:21:16;;;;;;;26.27;17.43;;;3.50;1.00;;;;;;5050084;28;20451;-57
2021/12/08 04:23:44;;;;;;;32.03;19.40;;;3.60;1.00;;;;;;5050528;28;20456;-55
2021/12/08 04:26:14;;;;;;;27.70;18.80;;;3.60;1.00;;;;;;5061964;28;20555;-55
2021/12/08 04:28:40;;;;;;;28.20;19.17;;;3.60;1.00;;;;;;5052377;28;20465;-55
2021/12/08 04:31:11;;;;;;;33.03;20.07;;;3.50;1.00;;;;;;5052411;28;20506;-57
2021/12/08 04:33:37;;;;;;;29.10;19.93;;;3.50;1.00;;;;;;5052878;28;20494;-55
2021/12/08 04:36:07;;;;;;;35.13;19.70;;;3.50;1.00;;;;;;5052081;28;20444;-56
2021/12/08 04:38:38;;;;;;;34.07;20.83;;;3.50;1.00;;;;;;5049901;28;20799;-57
2021/12/08 04:41:09;;;;;;;32.30;20.77;;;3.40;1.00;;;;;;5051358;28;20444;-56
2021/12/08 04:43:49;;;;;;;33.60;20.67;;;3.50;1.00;;;;;;5051168;28;20446;-58
2021/12/08 04:49:19;;;;;;;27.53;18.97;;;3.40;1.00;;;;;;5058532;28;20424;-57
2021/12/08 04:52:06;;;;;;;29.10;19.03;;;3.40;1.00;;;;;;5051643;28;20934;-55
2021/12/08 05:08:40;;;;;;;27.47;19.47;;;3.50;1.00;;;;;;5056475;28;20502;-58
2021/12/08 05:11:18;;;;;;;28.10;18.50;;;3.40;1.00;;;;;;5063704;28;20463;-60
2021/12/08 05:13:48;;;;;;;27.97;18.37;;;3.40;1.00;;;;;;5064655;28;20432;-58
2021/12/08 05:16:14;;;;;;;25.40;18.67;;;3.30;1.00;;;;;;5050944;28;20455;-59
2021/12/08 05:18:44;;;;;;;36.43;20.17;;;3.30;1.00;;;;;;5051751;28;20492;-57
2021/12/08 05:21:33;;;;;;;32.53;20.70;;;3.30;1.00;;;;;;5051543;28;20455;-58
2021/12/08 05:24:15;;;;;;;32.97;19.80;;;3.40;1.00;;;;;;5054403;28;20849;-57
2021/12/08 05:26:49;;;;;;;25.47;17.57;;;3.30;1.00;;;;;;5051096;28;20466;-58
2021/12/08 05:29:19;;;;;;;34.00;18.27;;;3.40;1.00;;;;;;5049875;28;20918;-57
2021/12/08 05:31:45;;;;;;;36.10;18.70;;;3.30;1.00;;;;;;5052620;28;20598;-57
2021/12/08 05:34:11;;;;;;;27.83;17.67;;;3.30;1.00;;;;;;5050761;28;20440;-57
2021/12/08 05:36:38;;;;;;;27.07;17.70;;;3.20;1.00;;;;;;5051404;28;20572;-57
2021/12/08 05:39:14;;;;;;;29.43;18.07;;;3.30;1.00;;;;;;5050180;28;20654;-58
2021/12/08 05:41:43;;;;;;;25.87;18.23;;;3.30;1.00;;;;;;5055487;28;20440;-57
2021/12/08 05:44:10;;;;;;;30.33;19.17;;;3.40;1.00;;;;;;5051108;28;20465;-57
2021/12/08 05:46:42;;;;;;;31.40;21.03;;;3.30;1.00;;;;;;5034320;28;20451;-56
2021/12/08 05:49:13;;;;;;;28.70;18.10;;;3.30;1.00;;;;;;5050273;28;20444;-57
2021/12/08 05:51:40;;;;;;;28.03;19.17;;;3.40;1.00;;;;;;5051303;28;20447;-57
2021/12/08 05:54:20;;;;;;;26.07;17.00;;;3.50;1.00;;;;;;5048631;28;20514;-57
2021/12/08 05:56:46;;;;;;;23.50;16.93;;;;;;;;;;5051010;28;20520;-56
2021/12/08 05:59:14;;;;;;;28.80;17.80;;;3.50;1.00;;;;;;5050446;28;20453;-57
2021/12/08 06:02:14;;;;;;;27.23;18.17;;;3.50;1.00;;;;;;5048714;28;20484;-56
2021/12/08 06:04:41;;;;;;;29.47;18.23;;;3.50;1.00;;;;;;5047726;28;20462;-58
2021/12/08 06:07:09;;;;;;;25.20;16.47;;;3.50;1.00;;;;;;5050176;28;20936;-57
2021/12/08 06:09:38;;;;;;;28.53;18.97;;;3.30;1.00;;;;;;5050895;28;20448;-57
2021/12/08 06:12:06;;;;;;;27.60;17.87;;;3.40;1.00;;;;;;5050163;28;21282;-58
2021/12/08 06:14:33;;;;;;;26.23;17.73;;;3.50;1.00;;;;;;5050273;28;20491;-60
2021/12/08 06:17:01;;;;;;;24.87;18.43;;;3.50;1.00;;;;;;5050552;28;20738;-58
2021/12/08 06:19:27;;;;;;;25.70;18.17;;;3.50;1.00;;;;;;5050375;28;21116;-58
2021/12/08 06:21:52;;;;;;;25.87;17.67;;;3.50;1.00;;;;;;5050929;28;20960;-58
2021/12/08 06:24:20;;;;;;;29.80;17.73;;;3.40;1.00;;;;;;5050573;28;20194;-57
2021/12/08 06:26:48;;;;;;;19.87;14.20;;;3.50;1.00;;;;;;5053834;28;20594;-57
2021/12/08 06:29:17;;;;;;;29.03;17.53;;;3.50;1.00;;;;;;5053820;28;20735;-59
2021/12/08 06:31:43;;;;;;;26.10;16.37;;;3.50;1.00;;;;;;5050316;28;20955;-58
2021/12/08 06:34:10;;;;;;;27.10;17.60;;;3.50;1.00;;;;;;5050316;28;20461;-59
2021/12/08 06:36:55;;;;;;;25.30;16.07;;;3.50;1.00;;;;;;5050435;28;20452;-56
2021/12/08 06:39:26;;;;;;;23.20;14.40;;;3.40;1.00;;;;;;5050470;28;20801;-57
2021/12/08 06:41:58;;;;;;;27.50;17.90;;;3.30;1.00;;;;;;5048943;28;20442;-57
2021/12/08 06:44:29;;;;;;;27.43;16.50;;;3.30;1.00;;;;;;5049929;28;20471;-57
2021/12/08 06:46:57;;;;;;;24.87;14.87;;;3.30;1.00;;;;;;5047217;28;20523;-57
2021/12/08 06:49:24;;;;;;;27.00;15.87;;;3.30;1.00;;;;;;5050042;28;20451;-58
2021/12/08 06:51:59;;;;;;;23.90;15.23;;;3.30;1.00;;;;;;5049853;28;20964;-58
2021/12/08 06:54:44;;;;;;;24.30;13.60;;;3.40;1.00;;;;;;5058787;28;20433;-57
2021/12/08 06:57:17;;;;;;;25.03;14.63;;;3.30;1.00;;;;;;5049627;28;20455;-59
2021/12/08 07:00:00;;;;;;;25.07;14.70;;;;;;;;;;5049880;28;20454;-58
2021/12/08 07:05:28;;;;;;;23.67;14.93;;;3.40;1.00;;;;;;5052713;28;21077;-58
2021/12/08 07:07:58;;;;;;;23.27;14.00;;;3.40;1.00;;;;;;5049293;28;20488;-57
2021/12/08 07:10:32;;;;;;;28.77;16.03;;;3.40;1.00;;;;;;5049754;28;20440;-58
2021/12/08 07:13:10;;;;;;;21.37;15.10;;;3.40;1.00;;;;;;5047870;28;20455;-58
2021/12/08 07:15:41;;;;;;;30.23;17.67;;;3.40;1.00;;;;;;5049185;28;20448;-58
2021/12/08 07:18:17;;;;;;;22.07;13.60;;;3.50;1.00;;;;;;5049357;28;20448;-58
2021/12/08 07:20:53;;;;;;;22.20;15.23;;;3.60;1.00;;;;;;5049323;28;20536;-58
2021/12/08 07:23:36;;;;;;;25.77;15.90;;;3.60;1.00;;;;;;5047326;28;20446;-59
2021/12/08 07:26:06;;;;;;;26.80;14.50;;;3.60;1.00;;;;;;5049463;28;20569;-57
2021/12/08 07:28:33;;;;;;;22.57;14.43;;;3.70;1.00;;;;;;5049052;28;20475;-57
2021/12/08 07:31:04;;;;;;;22.37;14.90;;;3.70;1.00;;;;;;5048937;28;20787;-56
2021/12/08 07:33:30;;;;;;;22.63;14.90;;;3.70;1.00;;;;;;5048336;28;20436;-58
2021/12/08 07:35:59;;;;;;;19.87;14.80;;;3.70;1.00;;;;;;5048947;28;20545;-60
2021/12/08 07:38:28;;;;;;;23.80;14.57;;;3.70;1.00;;;;;;5049516;28;20993;-57
2021/12/08 07:41:15;;;;;;;23.80;14.77;;;3.80;1.00;;;;;;5047718;28;21002;-58
2021/12/08 07:43:49;;;;;;;23.43;15.50;;;3.90;1.00;;;;;;5049257;28;20445;-58
2021/12/08 07:46:24;;;;;;;22.00;14.83;;;4.00;1.00;;;;;;5046906;28;20460;-59
2021/12/08 07:48:57;;;;;;;21.00;13.47;;;4.10;1.00;;;;;;5048865;28;20454;-57
2021/12/08 07:51:28;;;;;;;20.03;14.00;;;4.10;1.00;;;;;;5049478;28;20456;-57
2021/12/08 07:53:54;;;;;;;26.23;16.40;;;4.20;1.00;;;;;;5052217;28;20449;-58
2021/12/08 07:56:22;;;;;;;19.90;13.13;;;4.10;1.00;;;;;;5053537;28;20443;-59
2021/12/08 07:58:52;;;;;;;27.97;13.60;;;4.20;1.00;;;;;;5052806;28;20495;-57
2021/12/08 08:01:23;;;;;;;22.93;14.80;;;4.20;1.00;;;;;;5047014;28;20875;-56
2021/12/08 08:03:50;;;;;;;24.30;15.00;;;4.20;1.00;;;;;;5052758;28;20839;-55
2021/12/08 08:06:20;;;;;;;21.80;14.43;;;4.20;1.00;;;;;;5053193;28;20508;-55
2021/12/08 08:08:46;;;;;;;20.00;13.67;;;4.20;1.00;;;;;;5052685;28;20528;-56
2021/12/08 08:11:21;;;;;;;23.23;14.23;;;4.30;1.00;;;;;;5051110;28;20577;-56
2021/12/08 08:13:48;;;;;;;21.20;13.00;;;4.30;1.00;;;;;;5052753;28;20449;-56
2021/12/08 08:16:19;;;;;;;21.53;14.23;;;4.30;1.00;;;;;;5055961;28;20446;-56
2021/12/08 08:18:56;;;;;;;21.03;14.70;;;4.40;1.00;;;;;;5056519;28;20933;-55
2021/12/08 08:21:25;;;;;;;18.13;12.87;;;4.40;1.00;;;;;;5051147;28;20962;-57
2021/12/08 08:23:51;;;;;;;19.67;12.50;;;4.50;1.00;;;;;;5051399;28;20763;-57
2021/12/08 08:26:17;;;;;;;21.00;13.07;;;4.50;1.00;;;;;;5053968;28;20833;-56
2021/12/08 08:28:48;;;;;;;16.50;12.03;;;4.50;1.00;;;;;;5056327;28;20444;-55
2021/12/08 08:31:29;;;;;;;21.57;11.90;;;4.60;1.00;;;;;;5052253;28;20838;-57
2021/12/08 08:33:55;;;;;;;19.13;12.03;;;4.60;1.00;;;;;;5052835;28;20511;-59
2021/12/08 08:36:27;;;;;;;17.50;12.53;;;4.70;1.00;;;;;;5052152;28;20453;-59
2021/12/08 08:39:17;;;;;;;15.13;11.47;;;4.90;1.00;;;;;;5052508;28;20480;-56
2021/12/08 08:42:01;;;;;;;19.03;12.70;;;4.90;1.00;;;;;;5052122;28;20766;-57
2021/12/08 08:44:39;;;;;;;34.53;13.60;;;;;;;;;;5050836;28;20726;-57
2021/12/08 08:47:13;;;;;;;16.90;11.20;;;5.10;1.00;;;;;;5052772;28;20581;-56
2021/12/08 08:49:41;;;;;;;19.27;12.43;;;5.10;1.00;;;;;;5052346;28;20449;-57
2021/12/08 08:52:22;;;;;;;19.50;12.60;;;5.20;1.00;;;;;;5052442;28;20462;-56
2021/12/08 08:54:52;;;;;;;14.87;10.30;;;5.20;1.00;;;;;;5052279;28;20451;-56
2021/12/08 08:57:29;;;;;;;14.60;10.10;;;5.20;1.00;;;;;;5051948;28;20922;-56
2021/12/08 09:00:00;;;;;;;16.37;11.73;;;5.20;1.00;;;;;;5049003;28;20482;-55
2021/12/08 09:02:34;;;;;;;18.53;12.70;;;5.20;1.00;;;;;;5051947;28;20506;-56
2021/12/08 09:05:05;;;;;;;15.13;10.97;;;5.20;1.00;;;;;;5050853;28;20459;-56
2021/12/08 09:07:36;;;;;;;14.90;11.00;;;5.20;1.00;;;;;;5051702;28;20450;-56
2021/12/08 09:10:29;;;;;;;14.60;10.53;;;5.20;1.00;;;;;;5050337;28;20446;-56
2021/12/08 09:12:58;;;;;;;14.20;10.57;;;5.20;1.00;;;;;;5048297;28;20934;-58
2021/12/08 09:15:41;;;;;;;18.67;11.43;;;5.30;1.00;;;;;;5066235;28;20439;-58
2021/12/08 09:18:22;;;;;;;18.67;10.83;;;5.40;1.00;;;;;;5052143;28;20787;-56
2021/12/08 09:21:13;;;;;;;15.30;10.13;;;5.50;1.00;;;;;;5052610;28;20466;-56
2021/12/08 09:23:45;;;;;;;14.60;10.60;;;5.50;1.00;;;;;;5051576;28;20845;-57
2021/12/08 09:26:15;;;;;;;14.43;10.50;;;5.50;1.00;;;;;;5052141;28;20501;-56
2021/12/08 09:29:07;;;;;;;15.40;10.20;;;5.60;1.00;;;;;;5051328;28;20432;-55
2021/12/08 09:31:37;;;;;;;15.70;10.77;;;5.70;1.00;;;;;;5051024;28;20431;-56
2021/12/08 09:34:07;;;;;;;13.70;9.57;;;5.70;1.00;;;;;;5051292;28;20801;-57
2021/12/08 09:36:44;;;;;;;13.90;9.70;;;5.60;1.00;;;;;;5051569;28;20414;-57
2021/12/08 09:39:26;;;;;;;15.10;9.00;;;5.70;1.00;;;;;;5051287;28;20427;-57
2021/12/08 09:42:03;;;;;;;15.73;9.10;;;5.70;1.00;;;;;;5051681;28;20410;-57
2021/12/08 09:44:40;;;;;;;15.83;9.97;;;5.60;1.00;;;;;;5049200;28;20469;-57
2021/12/08 09:47:06;;;;;;;17.97;11.07;;;5.70;1.00;;;;;;5052027;28;20542;-59
2021/12/08 09:49:33;;;;;;;17.20;9.87;;;5.80;1.00;;;;;;5051629;28;20537;-57
2021/12/08 09:52:01;;;;;;;15.17;9.67;;;5.90;1.00;;;;;;5050450;28;20172;-57
2021/12/08 09:54:27;;;;;;;11.70;9.47;;;5.90;1.00;;;;;;5051511;28;20488;-58
2021/12/08 09:56:53;;;;;;;16.17;10.63;;;6.00;1.00;;;;;;5051004;28;20859;-56
2021/12/08 09:59:21;;;;;;;17.93;10.87;;;6.00;1.00;;;;;;5051739;28;20462;-58
2021/12/08 10:01:48;;;;;;;14.70;9.90;;;6.30;1.00;;;;;;5051118;28;20758;-57
2021/12/08 10:04:14;;;;;;;18.37;11.30;;;6.40;1.00;;;;;;5051231;28;20446;-58
2021/12/08 10:06:42;;;;;;;17.00;10.20;;;6.50;1.00;;;;;;5051233;28;20481;-57
2021/12/08 10:09:08;;;;;;;16.07;10.57;;;6.50;1.00;;;;;;5051212;28;20470;-57
2021/12/08 10:11:34;;;;;;;15.83;11.03;;;6.50;1.00;;;;;;5051206;28;20434;-59
2021/12/08 10:14:01;;;;;;;14.43;10.87;;;6.60;1.00;;;;;;5051141;28;20433;-57
2021/12/08 10:16:28;;;;;;;14.73;10.20;;;6.50;1.00;;;;;;5050591;28;20405;-58
2021/12/08 10:18:55;;;;;;;14.50;10.80;;;6.50;1.00;;;;;;5050823;28;20438;-59
2021/12/08 10:21:30;;;;;;;15.00;12.27;;;6.50;1.00;;;;;;5050517;28;20405;-58
2021/12/08 10:23:55;;;;;;;13.07;10.30;;;6.40;1.00;;;;;;5051053;28;20607;-59
2021/12/08 10:26:24;;;;;;;15.77;10.97;;;6.20;1.00;;;;;;5059254;28;20938;-60
2021/12/08 10:28:52;;;;;;;16.10;10.50;;;;;;;;;;5051151;28;20211;-58
2021/12/08 10:31:45;;;;;;;18.67;11.13;;;6.00;1.00;;;;;;5049683;28;20966;-57
2021/12/08 10:36:47;;;;;;;22.13;13.10;;;6.10;1.00;;;;;;5050036;28;20438;-59
2021/12/08 10:39:46;;;;;;;16.07;10.90;;;6.20;1.00;;;;;;5060913;28;20417;-59
2021/12/08 10:42:23;;;;;;;15.33;10.63;;;6.20;1.00;;;;;;5070862;28;20502;-59
2021/12/08 10:44:56;;;;;;;17.33;11.47;;;6.30;1.00;;;;;;5055355;28;20466;-58
2021/12/08 10:47:23;;;;;;;18.93;12.60;;;6.20;1.00;;;;;;5050757;28;20413;-59
2021/12/08 10:55:21;;;;;;;18.20;12.30;;;6.00;1.00;;;;;;5067117;28;20456;-59
2021/12/08 10:57:50;;;;;;;17.47;12.00;;;6.00;1.00;;;;;;5070577;28;20496;-58
2021/12/08 11:00:32;;;;;;;19.50;12.80;;;6.10;1.00;;;;;;5070290;28;20469;-58
2021/12/08 11:03:07;;;;;;;20.97;13.67;;;6.10;1.00;;;;;;5070061;28;20492;-59
2021/12/08 11:05:41;;;;;;;20.20;13.17;;;6.10;1.00;;;;;;5070680;28;20555;-58
2021/12/08 11:08:11;;;;;;;18.87;12.87;;;6.10;1.00;;;;;;5070354;28;20434;-58
2021/12/08 11:10:49;;;;;;;17.73;12.77;;;6.10;1.00;;;;;;5070260;28;20416;-58
2021/12/08 11:13:18;;;;;;;17.23;11.80;;;5.90;1.00;;;;;;5066649;28;20545;-59
2021/12/08 11:15:45;;;;;;;19.10;11.73;;;5.80;1.00;;;;;;5050252;28;20435;-57
2021/12/08 11:18:18;;;;;;;21.17;12.60;;;5.80;1.00;;;;;;5050376;28;20812;-59
2021/12/08 11:20:48;;;;;;;17.10;12.00;;;5.90;1.00;;;;;;5050624;28;20458;-57
2021/12/08 11:23:18;;;;;;;20.63;13.23;;;5.70;1.00;;;;;;5050325;28;20442;-59
2021/12/08 11:25:46;;;;;;;21.83;13.93;;;5.60;1.00;;;;;;5050078;28;20462;-58
2021/12/08 11:28:19;;;;;;;18.20;13.33;;;5.60;1.00;;;;;;5050729;28;20962;-59
2021/12/08 11:30:45;;;;;;;24.60;13.83;;;5.70;1.00;;;;;;5054507;28;20435;-58
2021/12/08 11:33:18;;;;;;;23.23;15.00;;;5.70;1.00;;;;;;5053925;28;20593;-57
2021/12/08 11:35:45;;;;;;;20.10;13.10;;;5.70;1.00;;;;;;5052959;28;20446;-57
2021/12/08 11:38:12;;;;;;;20.83;12.73;;;5.80;1.00;;;;;;5052442;28;20519;-59
2021/12/08 11:40:39;;;;;;;19.60;13.90;;;5.80;1.00;;;;;;5059096;28;20667;-58
2021/12/08 11:43:13;;;;;;;21.30;14.50;;;5.90;1.00;;;;;;5065083;28;20475;-60
2021/12/08 11:45:40;;;;;;;20.77;14.93;;;5.90;1.00;;;;;;5058351;28;20801;-58
2021/12/08 11:48:26;;;;;;;21.53;14.73;;;5.90;1.00;;;;;;5073930;28;20451;-57
2021/12/08 11:51:11;;;;;;;23.47;14.37;;;5.80;1.00;;;;;;5048636;28;20441;-57
2021/12/08 11:53:38;;;;;;;24.80;15.67;;;5.70;1.00;;;;;;5053799;28;20492;-58
2021/12/08 11:56:05;;;;;;;21.33;13.17;;;5.70;1.00;;;;;;5052548;28;20534;-58
2021/12/08 11:58:31;;;;;;;22.07;14.67;;;;;;;;;;5053495;28;20430;-57
2021/12/08 12:00:58;;;;;;;25.47;14.37;;;5.70;1.00;;;;;;5053859;28;20454;-57
2021/12/08 12:03:24;;;;;;;21.60;14.67;;;5.60;1.00;;;;;;5053553;28;20438;-57
2021/12/08 12:05:50;;;;;;;27.23;16.47;;;5.50;1.00;;;;;;5053127;28;20471;-57
2021/12/08 12:08:18;;;;;;;22.50;13.33;;;5.40;1.00;;;;;;5053752;28;20439;-57
2021/12/08 12:10:47;;;;;;;23.97;14.57;;;5.40;1.00;;;;;;5053363;28;20446;-58
2021/12/08 12:13:13;;;;;;;21.73;15.87;;;5.30;1.00;;;;;;5053469;28;20446;-58
2021/12/08 12:15:42;;;;;;;23.23;15.53;;;5.30;1.00;;;;;;5052203;28;20943;-58
2021/12/08 12:18:08;;;;;;;31.53;16.03;;;5.30;1.00;;;;;;5053675;28;20184;-57
2021/12/08 12:20:46;;;;;;;23.67;14.87;;;5.20;1.00;;;;;;5053365;28;20940;-57
2021/12/08 12:23:30;;;;;;;23.80;15.03;;;5.20;1.00;;;;;;5052151;28;20193;-56
2021/12/08 12:26:04;;;;;;;25.30;15.20;;;5.20;1.00;;;;;;5052431;28;20458;-58
2021/12/08 12:28:57;;;;;;;22.33;13.90;;;5.20;1.00;;;;;;5051227;28;20803;-58
2021/12/08 12:31:52;;;;;;;21.00;15.13;;;5.10;1.00;;;;;;5053359;28;20497;-58
2021/12/08 12:34:37;;;;;;;23.40;15.30;;;5.20;1.00;;;;;;5053088;28;20439;-56
2021/12/08 12:37:24;;;;;;;21.87;14.87;;;5.10;1.00;;;;;;5052651;28;20924;-57
2021/12/08 12:39:53;;;;;;;25.47;14.97;;;4.90;1.00;;;;;;5051600;28;20499;-58
2021/12/08 12:42:21;;;;;;;25.33;16.43;;;4.90;1.00;;;;;;5051460;28;20455;-57
2021/12/08 12:45:00;;;;;;;25.67;16.37;;;4.80;1.00;;;;;;5052649;28;20444;-58
2021/12/08 12:47:28;;;;;;;29.37;16.33;;;4.80;1.00;;;;;;5053063;28;20426;-58
2021/12/08 12:49:57;;;;;;;27.23;15.70;;;;;;;;;;5052718;28;20427;-56
2021/12/08 12:52:35;;;;;;;27.40;16.60;;;4.80;1.00;;;;;;5052566;28;20445;-57
2021/12/08 12:55:17;;;;;;;28.33;17.10;;;4.80;1.00;;;;;;5052239;28;20439;-57
2021/12/08 12:58:01;;;;;;;25.60;15.63;;;4.70;1.00;;;;;;5052655;28;20437;-57
2021/12/08 13:00:33;;;;;;;25.77;16.20;;;4.70;1.00;;;;;;5052354;28;20885;-56
2021/12/08 13:02:59;;;;;;;29.07;15.07;;;4.80;1.00;;;;;;5044335;28;20534;-56
2021/12/08 13:05:50;;;;;;;20.73;14.17;;;4.80;1.00;;;;;;5052180;28;20490;-57
2021/12/08 13:08:31;;;;;;;22.50;14.53;;;4.70;1.00;;;;;;5052366;28;20497;-56
2021/12/08 13:11:00;;;;;;;31.97;15.23;;;4.60;1.00;;;;;;5052481;28;20516;-57
2021/12/08 13:13:26;;;;;;;20.87;14.17;;;4.50;1.00;;;;;;5052303;28;20439;-56
2021/12/08 13:15:52;;;;;;;24.50;15.80;;;4.50;1.00;;;;;;5052357;28;20438;-58
2021/12/08 13:18:19;;;;;;;27.87;15.93;;;4.50;1.00;;;;;;5051610;28;20193;-57
2021/12/08 13:20:57;;;;;;;24.20;16.20;;;4.40;1.00;;;;;;5049951;28;20422;-57
2021/12/08 13:23:27;;;;;;;28.43;16.60;;;4.50;1.00;;;;;;5051843;28;20439;-57
2021/12/08 13:26:04;;;;;;;26.63;15.47;;;4.50;1.00;;;;;;5051951;28;20478;-58
2021/12/08 13:28:38;;;;;;;30.80;15.47;;;4.40;1.00;;;;;;5050185;28;20573;-56
2021/12/08 13:31:36;;;;;;;25.00;15.33;;;4.50;1.00;;;;;;5052093;28;20429;-57
2021/12/08 13:34:05;;;;;;;25.13;16.10;;;4.50;1.00;;;;;;5071198;28;20438;-58
2021/12/08 13:36:33;;;;;;;28.23;15.60;;;4.50;1.00;;;;;;5061551;28;20486;-59
2021/12/08 13:38:58;;;;;;;33.50;18.27;;;5.30;1.00;;;;;;5051872;28;20410;-58
2021/12/08 13:41:31;;;;;;;27.67;16.57;;;4.60;1.00;;;;;;5051701;28;20444;-58
2021/12/08 13:43:57;;;;;;;25.20;15.80;;;4.50;1.00;;;;;;5050585;28;20193;-58
2021/12/08 13:46:44;;;;;;;22.80;14.40;;;4.60;1.00;;;;;;5051607;28;20458;-58
2021/12/08 13:49:12;;;;;;;26.57;16.00;;;4.60;1.00;;;;;;5049711;28;20446;-57
2021/12/08 13:51:38;;;;;;;25.00;16.13;;;4.60;1.00;;;;;;5050696;28;20517;-56
2021/12/08 13:54:45;;;;;;;27.10;16.50;;;4.60;1.00;;;;;;5051851;28;20530;-56
2021/12/08 13:57:29;;;;;;;25.13;15.53;;;4.40;1.00;;;;;;5045872;28;20197;-57
2021/12/08 14:00:19;;;;;;;27.97;17.30;;;4.40;1.00;;;;;;5064031;28;20428;-58
2021/12/08 14:02:48;;;;;;;26.43;15.40;;;4.30;1.00;;;;;;5071039;28;20441;-57